sensor_id;sensor_type;location;lat;lon;timestamp;pressure;altitude;pressure_sealevel;temperature;humidity
41830;BME280;38614;43.472;23.936;2023-04-05T00:00:48;99885.59;;;3.28;100.00
41830;BME280;38614;43.472;23.936;2023-04-05T00:03:36;99895.88;;;3.31;100.00
41830;BME280;38614;43.472;23.936;2023-04-05T00:06:25;99913.06;;;3.32;100.00
41830;BME280;38614;43.472;23.936;2023-04-05T00:09:17;99863.84;;;3.14;100.00
41830;BME280;38614;43.472;23.936;2023-04-05T00:12:07;99908.63;;;3.45;100.00
41830;BME280;38614;43.472;23.936;2023-04-05T00:14:54;99893.97;;;3.40;100.00
41830;BME280;38614;43.472;23.936;2023-04-05T00:17:43;99894.44;;;3.42;100.00
41830;BME280;38614;43.472;23.936;2023-04-05T00:20:31;99864.19;;;3.22;100.00
41830;BME280;38614;43.472;23.936;2023-04-05T00:23:19;99898.19;;;3.47;100.00
41830;BME280;38614;43.472;23.936;2023-04-05T00:26:10;99882.72;;;3.42;100.00
41830;BME280;38614;43.472;23.936;2023-04-05T00:29:02;99855.34;;;3.25;100.00
41830;BME280;38614;43.472;23.936;2023-04-05T00:31:50;99877.91;;;3.39;100.00
41830;BME280;38614;43.472;23.936;2023-04-05T00:34:38;99893.16;;;3.40;100.00
41830;BME280;38614;43.472;23.936;2023-04-05T00:37:26;99900.06;;;3.37;100.00
41830;BME280;38614;43.472;23.936;2023-04-05T00:40:13;99788.72;;;2.69;100.00
41830;BME280;38614;43.472;23.936;2023-04-05T00:43:01;99877.09;;;3.38;100.00
41830;BME280;38614;43.472;23.936;2023-04-05T00:45:49;99915.50;;;3.42;100.00
41830;BME280;38614;43.472;23.936;2023-04-05T00:48:37;99909.41;;;3.45;100.00
41830;BME280;38614;43.472;23.936;2023-04-05T00:51:26;99901.38;;;3.49;100.00
41830;BME280;38614;43.472;23.936;2023-04-05T00:54:14;99882.09;;;3.45;100.00
41830;BME280;38614;43.472;23.936;2023-04-05T00:57:02;99899.19;;;3.68;100.00
41830;BME280;38614;43.472;23.936;2023-04-05T00:59:49;99860.22;;;3.36;100.00
41830;BME280;38614;43.472;23.936;2023-04-05T01:02:51;99884.03;;;3.53;100.00
41830;BME280;38614;43.472;23.936;2023-04-05T01:05:43;99887.28;;;3.55;100.00
41830;BME280;38614;43.472;23.936;2023-04-05T01:08:44;99878.38;;;3.41;100.00
41830;BME280;38614;43.472;23.936;2023-04-05T01:11:37;99891.41;;;3.53;100.00
41830;BME280;38614;43.472;23.936;2023-04-05T01:14:25;99864.88;;;3.36;100.00
41830;BME280;38614;43.472;23.936;2023-04-05T01:17:13;99877.13;;;3.47;100.00
41830;BME280;38614;43.472;23.936;2023-04-05T01:20:05;99895.75;;;3.45;100.00
41830;BME280;38614;43.472;23.936;2023-04-05T01:29:24;99891.41;;;3.53;100.00
41830;BME280;38614;43.472;23.936;2023-04-05T01:35:21;99878.44;;;3.58;100.00
41830;BME280;38614;43.472;23.936;2023-04-05T01:38:11;99884.53;;;3.55;100.00
41830;BME280;38614;43.472;23.936;2023-04-05T01:41:04;99867.47;;;3.50;100.00
41830;BME280;38614;43.472;23.936;2023-04-05T01:43:52;99874.25;;;3.61;100.00
41830;BME280;38614;43.472;23.936;2023-04-05T01:46:40;99852.50;;;3.38;100.00
41830;BME280;38614;43.472;23.936;2023-04-05T01:49:28;99871.97;;;3.46;100.00
41830;BME280;38614;43.472;23.936;2023-04-05T01:52:16;99878.88;;;3.52;100.00
41830;BME280;38614;43.472;23.936;2023-04-05T01:55:05;99873.75;;;3.50;100.00
41830;BME280;38614;43.472;23.936;2023-04-05T01:57:54;99882.75;;;3.59;100.00
41830;BME280;38614;43.472;23.936;2023-04-05T02:00:43;99874.38;;;3.47;100.00
41830;BME280;38614;43.472;23.936;2023-04-05T02:03:31;99847.03;;;3.30;100.00
41830;BME280;38614;43.472;23.936;2023-04-05T02:06:19;99880.34;;;3.49;100.00
41830;BME280;38614;43.472;23.936;2023-04-05T02:09:07;99866.69;;;3.49;100.00
41830;BME280;38614;43.472;23.936;2023-04-05T02:11:54;99887.56;;;3.62;100.00
41830;BME280;38614;43.472;23.936;2023-04-05T02:14:42;99889.84;;;3.60;100.00
41830;BME280;38614;43.472;23.936;2023-04-05T02:17:30;99852.19;;;3.31;100.00
41830;BME280;38614;43.472;23.936;2023-04-05T02:20:20;99875.34;;;3.51;100.00
41830;BME280;38614;43.472;23.936;2023-04-05T02:23:08;99883.88;;;3.50;100.00
41830;BME280;38614;43.472;23.936;2023-04-05T02:25:56;99872.91;;;3.41;100.00
41830;BME280;38614;43.472;23.936;2023-04-05T02:28:44;99882.94;;;3.54;100.00
41830;BME280;38614;43.472;23.936;2023-04-05T02:31:32;99877.94;;;3.56;100.00
41830;BME280;38614;43.472;23.936;2023-04-05T02:34:20;99862.16;;;3.53;100.00
41830;BME280;38614;43.472;23.936;2023-04-05T02:37:10;99876.00;;;3.57;100.00
41830;BME280;38614;43.472;23.936;2023-04-05T02:39:59;99864.25;;;3.48;100.00
41830;BME280;38614;43.472;23.936;2023-04-05T02:42:47;99876.97;;;3.52;100.00
41830;BME280;38614;43.472;23.936;2023-04-05T02:45:36;99879.72;;;3.61;100.00
41830;BME280;38614;43.472;23.936;2023-04-05T02:48:25;99871.19;;;3.54;100.00
41830;BME280;38614;43.472;23.936;2023-04-05T02:51:13;99874.09;;;3.57;100.00
41830;BME280;38614;43.472;23.936;2023-04-05T02:54:02;99846.25;;;3.38;100.00
41830;BME280;38614;43.472;23.936;2023-04-05T02:56:52;99844.47;;;3.33;100.00
41830;BME280;38614;43.472;23.936;2023-04-05T02:59:41;99863.59;;;3.42;100.00
41830;BME280;38614;43.472;23.936;2023-04-05T03:02:31;99857.34;;;3.41;100.00
41830;BME280;38614;43.472;23.936;2023-04-05T03:05:21;99872.78;;;3.46;100.00
41830;BME280;38614;43.472;23.936;2023-04-05T03:08:12;99874.88;;;3.49;100.00
41830;BME280;38614;43.472;23.936;2023-04-05T03:11:17;99874.06;;;3.49;100.00
41830;BME280;38614;43.472;23.936;2023-04-05T03:14:09;99885.66;;;3.54;100.00
41830;BME280;38614;43.472;23.936;2023-04-05T03:17:04;99855.22;;;3.30;100.00
41830;BME280;38614;43.472;23.936;2023-04-05T03:20:00;99884.53;;;3.55;100.00
41830;BME280;38614;43.472;23.936;2023-04-05T03:22:48;99867.66;;;3.45;100.00
41830;BME280;38614;43.472;23.936;2023-04-05T03:25:37;99881.94;;;3.50;100.00
41830;BME280;38614;43.472;23.936;2023-04-05T03:28:26;99885.66;;;3.54;100.00
41830;BME280;38614;43.472;23.936;2023-04-05T03:31:19;99890.81;;;3.56;100.00
41830;BME280;38614;43.472;23.936;2023-04-05T03:34:07;99887.06;;;3.52;100.00
41830;BME280;38614;43.472;23.936;2023-04-05T03:37:02;99889.00;;;3.51;100.00
41830;BME280;38614;43.472;23.936;2023-04-05T03:39:58;99853.63;;;3.29;100.00
41830;BME280;38614;43.472;23.936;2023-04-05T03:42:46;99835.16;;;3.26;100.00
41830;BME280;38614;43.472;23.936;2023-04-05T03:45:35;99875.22;;;3.56;100.00
41830;BME280;38614;43.472;23.936;2023-04-05T03:48:23;99892.22;;;3.53;100.00
41830;BME280;38614;43.472;23.936;2023-04-05T03:51:11;99888.06;;;3.47;100.00
41830;BME280;38614;43.472;23.936;2023-04-05T03:53:59;99846.06;;;3.26;100.00
41830;BME280;38614;43.472;23.936;2023-04-05T03:56:51;99878.06;;;3.42;100.00
41830;BME280;38614;43.472;23.936;2023-04-05T03:59:39;99856.47;;;3.24;100.00
41830;BME280;38614;43.472;23.936;2023-04-05T04:02:27;99862.59;;;3.21;100.00
41830;BME280;38614;43.472;23.936;2023-04-05T04:05:18;99874.53;;;3.42;100.00
41830;BME280;38614;43.472;23.936;2023-04-05T04:08:10;99869.41;;;3.49;100.00
41830;BME280;38614;43.472;23.936;2023-04-05T04:10:59;99896.09;;;3.61;100.00
41830;BME280;38614;43.472;23.936;2023-04-05T04:13:51;99873.56;;;3.38;100.00
41830;BME280;38614;43.472;23.936;2023-04-05T04:16:58;99886.13;;;3.56;100.00
41830;BME280;38614;43.472;23.936;2023-04-05T04:20:11;99903.97;;;3.62;100.00
41830;BME280;38614;43.472;23.936;2023-04-05T04:23:19;99895.78;;;3.54;100.00
41830;BME280;38614;43.472;23.936;2023-04-05T04:26:22;99899.63;;;3.61;100.00
41830;BME280;38614;43.472;23.936;2023-04-05T04:29:36;99888.09;;;3.64;100.00
41830;BME280;38614;43.472;23.936;2023-04-05T04:32:48;99900.63;;;3.74;100.00
41830;BME280;38614;43.472;23.936;2023-04-05T04:35:56;99887.13;;;3.78;100.00
41830;BME280;38614;43.472;23.936;2023-04-05T04:39:01;99883.91;;;3.76;100.00
41830;BME280;38614;43.472;23.936;2023-04-05T04:42:10;99903.41;;;3.91;100.00
41830;BME280;38614;43.472;23.936;2023-04-05T04:45:18;99899.19;;;3.85;100.00
41830;BME280;38614;43.472;23.936;2023-04-05T04:48:15;99889.41;;;3.84;100.00
41830;BME280;38614;43.472;23.936;2023-04-05T04:51:29;99897.13;;;3.82;100.00
41830;BME280;38614;43.472;23.936;2023-04-05T04:54:17;99890.19;;;3.85;100.00
41830;BME280;38614;43.472;23.936;2023-04-05T04:57:07;99864.47;;;3.77;100.00
41830;BME280;38614;43.472;23.936;2023-04-05T04:59:55;99903.72;;;4.07;100.00
41830;BME280;38614;43.472;23.936;2023-04-05T05:02:43;99884.88;;;3.97;100.00
41830;BME280;38614;43.472;23.936;2023-04-05T05:05:34;99894.88;;;4.10;100.00
41830;BME280;38614;43.472;23.936;2023-04-05T05:08:21;99898.09;;;4.21;100.00
41830;BME280;38614;43.472;23.936;2023-04-05T05:11:09;99903.84;;;4.37;100.00
41830;BME280;38614;43.472;23.936;2023-04-05T05:13:57;99910.78;;;4.43;100.00
41830;BME280;38614;43.472;23.936;2023-04-05T05:16:47;99896.78;;;4.36;100.00
41830;BME280;38614;43.472;23.936;2023-04-05T05:19:36;99862.69;;;4.07;100.00
41830;BME280;38614;43.472;23.936;2023-04-05T05:22:23;99884.75;;;4.19;100.00
41830;BME280;38614;43.472;23.936;2023-04-05T05:25:11;99898.69;;;4.44;100.00
41830;BME280;38614;43.472;23.936;2023-04-05T05:27:59;99915.09;;;4.61;100.00
41830;BME280;38614;43.472;23.936;2023-04-05T05:30:49;99895.63;;;4.54;100.00
41830;BME280;38614;43.472;23.936;2023-04-05T05:33:36;99914.41;;;4.81;100.00
41830;BME280;38614;43.472;23.936;2023-04-05T05:36:24;99889.81;;;4.64;100.00
41830;BME280;38614;43.472;23.936;2023-04-05T05:39:12;99922.47;;;4.86;100.00
41830;BME280;38614;43.472;23.936;2023-04-05T05:41:59;99918.53;;;5.05;100.00
41830;BME280;38614;43.472;23.936;2023-04-05T05:44:47;99876.50;;;5.01;100.00
41830;BME280;38614;43.472;23.936;2023-04-05T05:47:35;99903.84;;;5.09;100.00
41830;BME280;38614;43.472;23.936;2023-04-05T05:50:23;99911.88;;;5.14;100.00
41830;BME280;38614;43.472;23.936;2023-04-05T05:53:11;99879.88;;;4.98;100.00
41830;BME280;38614;43.472;23.936;2023-04-05T05:56:01;99895.41;;;5.23;100.00
41830;BME280;38614;43.472;23.936;2023-04-05T05:58:49;99914.03;;;5.38;100.00
41830;BME280;38614;43.472;23.936;2023-04-05T06:01:38;99911.22;;;5.18;100.00
41830;BME280;38614;43.472;23.936;2023-04-05T06:04:29;99895.78;;;5.13;100.00
41830;BME280;38614;43.472;23.936;2023-04-05T06:07:17;99875.47;;;5.14;100.00
41830;BME280;38614;43.472;23.936;2023-04-05T06:10:05;99905.91;;;5.51;100.00
41830;BME280;38614;43.472;23.936;2023-04-05T06:12:54;99854.88;;;5.08;100.00
41830;BME280;38614;43.472;23.936;2023-04-05T06:15:42;99891.03;;;5.31;100.00
41830;BME280;38614;43.472;23.936;2023-04-05T06:18:30;99921.34;;;5.55;100.00
41830;BME280;38614;43.472;23.936;2023-04-05T06:21:17;99909.63;;;5.46;100.00
41830;BME280;38614;43.472;23.936;2023-04-05T06:24:05;99921.06;;;5.48;100.00
41830;BME280;38614;43.472;23.936;2023-04-05T06:26:53;99933.75;;;5.61;100.00
41830;BME280;38614;43.472;23.936;2023-04-05T06:29:41;99923.22;;;5.42;100.00
41830;BME280;38614;43.472;23.936;2023-04-05T06:32:29;99933.00;;;5.52;100.00
41830;BME280;38614;43.472;23.936;2023-04-05T06:35:18;99836.25;;;4.93;100.00
41830;BME280;38614;43.472;23.936;2023-04-05T06:38:06;99898.72;;;5.37;100.00
41830;BME280;38614;43.472;23.936;2023-04-05T06:40:54;99946.13;;;5.67;100.00
41830;BME280;38614;43.472;23.936;2023-04-05T06:43:41;99934.72;;;5.57;100.00
41830;BME280;38614;43.472;23.936;2023-04-05T06:46:29;99956.13;;;5.34;100.00
41830;BME280;38614;43.472;23.936;2023-04-05T06:49:17;99934.31;;;5.46;100.00
41830;BME280;38614;43.472;23.936;2023-04-05T06:52:04;99898.97;;;5.53;100.00
41830;BME280;38614;43.472;23.936;2023-04-05T06:54:53;99952.50;;;5.80;100.00
41830;BME280;38614;43.472;23.936;2023-04-05T06:57:41;99940.03;;;5.91;100.00
41830;BME280;38614;43.472;23.936;2023-04-05T07:00:28;99945.97;;;5.64;100.00
41830;BME280;38614;43.472;23.936;2023-04-05T07:03:16;99959.19;;;6.00;100.00
41830;BME280;38614;43.472;23.936;2023-04-05T07:06:04;99957.13;;;6.18;100.00
41830;BME280;38614;43.472;23.936;2023-04-05T07:08:52;99921.00;;;6.16;100.00
41830;BME280;38614;43.472;23.936;2023-04-05T07:11:40;99943.06;;;6.40;100.00
41830;BME280;38614;43.472;23.936;2023-04-05T07:14:35;99935.25;;;6.09;100.00
41830;BME280;38614;43.472;23.936;2023-04-05T07:17:23;99924.16;;;6.06;100.00
41830;BME280;38614;43.472;23.936;2023-04-05T07:20:12;99960.22;;;6.16;100.00
41830;BME280;38614;43.472;23.936;2023-04-05T07:23:00;99950.91;;;6.09;100.00
41830;BME280;38614;43.472;23.936;2023-04-05T07:25:48;99929.47;;;6.02;100.00
41830;BME280;38614;43.472;23.936;2023-04-05T07:28:36;99960.06;;;6.13;100.00
41830;BME280;38614;43.472;23.936;2023-04-05T07:31:31;99967.97;;;6.35;100.00
41830;BME280;38614;43.472;23.936;2023-04-05T07:34:24;99954.44;;;6.09;100.00
41830;BME280;38614;43.472;23.936;2023-04-05T07:37:13;99971.13;;;6.25;100.00
41830;BME280;38614;43.472;23.936;2023-04-05T07:40:02;99951.88;;;6.04;100.00
41830;BME280;38614;43.472;23.936;2023-04-05T07:42:50;99978.63;;;6.16;100.00
41830;BME280;38614;43.472;23.936;2023-04-05T07:45:38;99931.75;;;6.00;100.00
41830;BME280;38614;43.472;23.936;2023-04-05T07:48:26;99965.88;;;6.11;100.00
41830;BME280;38614;43.472;23.936;2023-04-05T07:51:14;99993.19;;;6.08;100.00
41830;BME280;38614;43.472;23.936;2023-04-05T07:54:01;99988.03;;;6.06;100.00
41830;BME280;38614;43.472;23.936;2023-04-05T07:56:50;99988.84;;;6.27;100.00
41830;BME280;38614;43.472;23.936;2023-04-05T07:59:38;99990.25;;;6.54;100.00
41830;BME280;38614;43.472;23.936;2023-04-05T08:02:26;99987.53;;;6.54;100.00
41830;BME280;38614;43.472;23.936;2023-04-05T08:05:14;99995.13;;;6.70;100.00
41830;BME280;38614;43.472;23.936;2023-04-05T08:08:02;99989.44;;;6.75;100.00
41830;BME280;38614;43.472;23.936;2023-04-05T08:10:50;99949.78;;;6.51;100.00
41830;BME280;38614;43.472;23.936;2023-04-05T08:13:38;99995.22;;;6.61;100.00
41830;BME280;38614;43.472;23.936;2023-04-05T08:16:29;99986.09;;;6.69;100.00
41830;BME280;38614;43.472;23.936;2023-04-05T08:19:17;99991.69;;;6.94;100.00
41830;BME280;38614;43.472;23.936;2023-04-05T08:22:05;99979.47;;;7.03;100.00
41830;BME280;38614;43.472;23.936;2023-04-05T08:24:53;99962.91;;;7.24;100.00
41830;BME280;38614;43.472;23.936;2023-04-05T08:27:41;99991.41;;;7.20;100.00
41830;BME280;38614;43.472;23.936;2023-04-05T08:30:28;99980.88;;;7.22;100.00
41830;BME280;38614;43.472;23.936;2023-04-05T08:33:16;99989.69;;;7.15;100.00
41830;BME280;38614;43.472;23.936;2023-04-05T08:36:05;99980.72;;;7.06;100.00
41830;BME280;38614;43.472;23.936;2023-04-05T08:38:53;99976.13;;;6.98;100.00
41830;BME280;38614;43.472;23.936;2023-04-05T08:41:53;99989.13;;;7.22;100.00
41830;BME280;38614;43.472;23.936;2023-04-05T08:44:44;100006.22;;;6.94;100.00
41830;BME280;38614;43.472;23.936;2023-04-05T08:47:35;100002.38;;;7.07;100.00
41830;BME280;38614;43.472;23.936;2023-04-05T08:50:23;99957.00;;;6.89;100.00
41830;BME280;38614;43.472;23.936;2023-04-05T08:53:11;100006.56;;;7.38;100.00
41830;BME280;38614;43.472;23.936;2023-04-05T08:55:59;100011.13;;;7.34;100.00
41830;BME280;38614;43.472;23.936;2023-04-05T09:01:50;99954.31;;;7.26;100.00
41830;BME280;38614;43.472;23.936;2023-04-05T09:04:42;100004.88;;;8.07;100.00
41830;BME280;38614;43.472;23.936;2023-04-05T09:07:31;100005.91;;;8.14;100.00
41830;BME280;38614;43.472;23.936;2023-04-05T09:10:20;100000.31;;;7.74;100.00
41830;BME280;38614;43.472;23.936;2023-04-05T09:13:08;99969.94;;;7.95;100.00
41830;BME280;38614;43.472;23.936;2023-04-05T09:16:00;99990.22;;;8.03;100.00
41830;BME280;38614;43.472;23.936;2023-04-05T09:18:48;100025.84;;;8.48;100.00
41830;BME280;38614;43.472;23.936;2023-04-05T09:22:04;100011.09;;;8.56;100.00
41830;BME280;38614;43.472;23.936;2023-04-05T09:24:58;100018.19;;;8.69;100.00
41830;BME280;38614;43.472;23.936;2023-04-05T09:27:53;99961.25;;;8.73;100.00
41830;BME280;38614;43.472;23.936;2023-04-05T09:30:45;100004.50;;;9.45;100.00
41830;BME280;38614;43.472;23.936;2023-04-05T09:33:33;100007.09;;;9.53;100.00
41830;BME280;38614;43.472;23.936;2023-04-05T09:36:23;99984.81;;;9.30;100.00
41830;BME280;38614;43.472;23.936;2023-04-05T09:39:10;100000.41;;;9.23;100.00
41830;BME280;38614;43.472;23.936;2023-04-05T09:42:10;100013.44;;;9.10;100.00
41830;BME280;38614;43.472;23.936;2023-04-05T09:45:01;99972.56;;;8.56;100.00
41830;BME280;38614;43.472;23.936;2023-04-05T09:47:56;99994.28;;;8.85;100.00
41830;BME280;38614;43.472;23.936;2023-04-05T09:50:44;99998.63;;;8.87;100.00
41830;BME280;38614;43.472;23.936;2023-04-05T09:53:32;100016.91;;;8.79;100.00
41830;BME280;38614;43.472;23.936;2023-04-05T09:56:20;99996.38;;;8.76;100.00
41830;BME280;38614;43.472;23.936;2023-04-05T09:59:09;100007.03;;;9.06;100.00
41830;BME280;38614;43.472;23.936;2023-04-05T10:01:57;100015.00;;;9.23;100.00
41830;BME280;38614;43.472;23.936;2023-04-05T10:04:46;99993.72;;;8.80;100.00
41830;BME280;38614;43.472;23.936;2023-04-05T10:07:34;99986.88;;;8.62;100.00
41830;BME280;38614;43.472;23.936;2023-04-05T10:10:23;100004.41;;;9.25;100.00
41830;BME280;38614;43.472;23.936;2023-04-05T10:13:13;99994.78;;;9.19;100.00
41830;BME280;38614;43.472;23.936;2023-04-05T10:16:02;100009.16;;;8.97;100.00
41830;BME280;38614;43.472;23.936;2023-04-05T10:18:52;99993.75;;;8.96;100.00
41830;BME280;38614;43.472;23.936;2023-04-05T10:21:41;99994.91;;;8.95;100.00
41830;BME280;38614;43.472;23.936;2023-04-05T10:24:33;100002.28;;;8.91;100.00
41830;BME280;38614;43.472;23.936;2023-04-05T10:27:47;99980.66;;;8.77;100.00
41830;BME280;38614;43.472;23.936;2023-04-05T10:30:37;99969.44;;;9.13;100.00
41830;BME280;38614;43.472;23.936;2023-04-05T10:33:50;100001.31;;;8.99;100.00
41830;BME280;38614;43.472;23.936;2023-04-05T10:36:55;99988.69;;;8.98;100.00
41830;BME280;38614;43.472;23.936;2023-04-05T10:39:45;99997.59;;;9.07;100.00
41830;BME280;38614;43.472;23.936;2023-04-05T10:42:41;100007.28;;;9.45;100.00
41830;BME280;38614;43.472;23.936;2023-04-05T10:45:30;99999.94;;;8.77;100.00
41830;BME280;38614;43.472;23.936;2023-04-05T10:51:38;99932.06;;;8.04;100.00
41830;BME280;38614;43.472;23.936;2023-04-05T10:54:27;99979.66;;;8.05;100.00
41830;BME280;38614;43.472;23.936;2023-04-05T10:57:17;99972.53;;;8.16;100.00
41830;BME280;38614;43.472;23.936;2023-04-05T11:00:07;100008.03;;;8.45;100.00
41830;BME280;38614;43.472;23.936;2023-04-05T11:02:55;99990.63;;;8.17;100.00
41830;BME280;38614;43.472;23.936;2023-04-05T11:05:43;100021.00;;;8.33;100.00
41830;BME280;38614;43.472;23.936;2023-04-05T11:08:39;100017.09;;;8.46;100.00
41830;BME280;38614;43.472;23.936;2023-04-05T11:11:37;100023.19;;;8.27;100.00
41830;BME280;38614;43.472;23.936;2023-04-05T11:14:36;100021.59;;;8.26;100.00
41830;BME280;38614;43.472;23.936;2023-04-05T11:17:40;99979.84;;;8.24;100.00
41830;BME280;38614;43.472;23.936;2023-04-05T11:20:39;100015.50;;;8.45;100.00
41830;BME280;38614;43.472;23.936;2023-04-05T11:24:09;100002.25;;;8.75;100.00
41830;BME280;38614;43.472;23.936;2023-04-05T11:26:58;100010.59;;;8.78;100.00
41830;BME280;38614;43.472;23.936;2023-04-05T11:29:47;100009.38;;;8.92;100.00
41830;BME280;38614;43.472;23.936;2023-04-05T11:32:42;100009.16;;;8.97;100.00
41830;BME280;38614;43.472;23.936;2023-04-05T11:35:33;100003.56;;;8.53;100.00
41830;BME280;38614;43.472;23.936;2023-04-05T11:38:21;99991.91;;;8.07;100.00
41830;BME280;38614;43.472;23.936;2023-04-05T11:43:57;100012.41;;;8.46;100.00
41830;BME280;38614;43.472;23.936;2023-04-05T11:46:45;99991.88;;;8.44;100.00
41830;BME280;38614;43.472;23.936;2023-04-05T11:49:33;99998.84;;;8.94;100.00
41830;BME280;38614;43.472;23.936;2023-04-05T11:52:21;100004.56;;;9.17;100.00
41830;BME280;38614;43.472;23.936;2023-04-05T11:55:09;99977.34;;;9.15;100.00
41830;BME280;38614;43.472;23.936;2023-04-05T11:57:58;100003.88;;;9.67;100.00
41830;BME280;38614;43.472;23.936;2023-04-05T12:00:46;99998.28;;;9.79;100.00
41830;BME280;38614;43.472;23.936;2023-04-05T12:03:43;99983.34;;;9.33;100.00
41830;BME280;38614;43.472;23.936;2023-04-05T12:06:31;99979.78;;;9.32;100.00
41830;BME280;38614;43.472;23.936;2023-04-05T12:09:18;99999.09;;;9.32;100.00
41830;BME280;38614;43.472;23.936;2023-04-05T12:12:15;99980.06;;;8.71;100.00
41830;BME280;38614;43.472;23.936;2023-04-05T12:15:04;100007.69;;;8.87;100.00
41830;BME280;38614;43.472;23.936;2023-04-05T12:17:52;100009.88;;;9.09;100.00
41830;BME280;38614;43.472;23.936;2023-04-05T12:20:41;99993.19;;;8.62;100.00
41830;BME280;38614;43.472;23.936;2023-04-05T12:23:29;99906.78;;;8.26;100.00
41830;BME280;38614;43.472;23.936;2023-04-05T12:26:18;100013.91;;;9.28;100.00
41830;BME280;38614;43.472;23.936;2023-04-05T12:29:06;99993.44;;;9.13;100.00
41830;BME280;38614;43.472;23.936;2023-04-05T12:31:54;99994.75;;;9.03;100.00
41830;BME280;38614;43.472;23.936;2023-04-05T12:34:46;99968.38;;;9.34;100.00
41830;BME280;38614;43.472;23.936;2023-04-05T12:37:34;100010.19;;;9.83;100.00
41830;BME280;38614;43.472;23.936;2023-04-05T12:40:22;100016.50;;;9.36;100.00
41830;BME280;38614;43.472;23.936;2023-04-05T12:43:11;100008.50;;;9.47;100.00
41830;BME280;38614;43.472;23.936;2023-04-05T12:46:09;100011.09;;;9.40;100.00
41830;BME280;38614;43.472;23.936;2023-04-05T12:48:58;99965.31;;;9.86;100.00
41830;BME280;38614;43.472;23.936;2023-04-05T12:51:46;100025.75;;;9.28;100.00
41830;BME280;38614;43.472;23.936;2023-04-05T12:54:34;100009.91;;;9.25;100.00
41830;BME280;38614;43.472;23.936;2023-04-05T12:57:31;100011.03;;;9.08;100.00
41830;BME280;38614;43.472;23.936;2023-04-05T13:00:20;99974.97;;;8.57;100.00
41830;BME280;38614;43.472;23.936;2023-04-05T13:03:19;100016.66;;;8.44;100.00
41830;BME280;38614;43.472;23.936;2023-04-05T13:06:10;100004.66;;;7.99;100.00
41830;BME280;38614;43.472;23.936;2023-04-05T13:09:05;100010.38;;;8.07;100.00
41830;BME280;38614;43.472;23.936;2023-04-05T13:11:53;100008.66;;;7.90;100.00
41830;BME280;38614;43.472;23.936;2023-04-05T13:14:41;99991.69;;;7.88;100.00
41830;BME280;38614;43.472;23.936;2023-04-05T13:17:28;100005.22;;;7.81;100.00
41830;BME280;38614;43.472;23.936;2023-04-05T13:20:16;99977.13;;;7.38;100.00
41830;BME280;38614;43.472;23.936;2023-04-05T13:23:04;100006.13;;;7.60;100.00
41830;BME280;38614;43.472;23.936;2023-04-05T13:25:57;100003.94;;;7.54;100.00
41830;BME280;38614;43.472;23.936;2023-04-05T13:28:44;100020.09;;;7.43;100.00
41830;BME280;38614;43.472;23.936;2023-04-05T13:31:35;100010.81;;;7.48;100.00
41830;BME280;38614;43.472;23.936;2023-04-05T13:34:23;99975.28;;;7.18;100.00
41830;BME280;38614;43.472;23.936;2023-04-05T13:37:11;100006.44;;;7.34;100.00
41830;BME280;38614;43.472;23.936;2023-04-05T13:39:59;99999.31;;;7.21;100.00
41830;BME280;38614;43.472;23.936;2023-04-05T13:42:46;99986.28;;;7.30;100.00
41830;BME280;38614;43.472;23.936;2023-04-05T13:45:35;99977.25;;;6.97;100.00
41830;BME280;38614;43.472;23.936;2023-04-05T13:48:26;100002.88;;;7.34;100.00
41830;BME280;38614;43.472;23.936;2023-04-05T13:51:13;99981.22;;;7.20;100.00
41830;BME280;38614;43.472;23.936;2023-04-05T13:54:01;100018.34;;;7.26;100.00
41830;BME280;38614;43.472;23.936;2023-04-05T13:56:49;100023.53;;;7.40;100.00
41830;BME280;38614;43.472;23.936;2023-04-05T13:59:37;99991.41;;;7.07;100.00
41830;BME280;38614;43.472;23.936;2023-04-05T14:02:25;100008.63;;;7.29;100.00
41830;BME280;38614;43.472;23.936;2023-04-05T14:05:13;100018.34;;;7.26;100.00
41830;BME280;38614;43.472;23.936;2023-04-05T14:08:02;100025.28;;;7.11;100.00
41830;BME280;38614;43.472;23.936;2023-04-05T14:10:53;100012.75;;;6.90;100.00
41830;BME280;38614;43.472;23.936;2023-04-05T14:13:41;99994.88;;;6.96;100.00
41830;BME280;38614;43.472;23.936;2023-04-05T14:16:29;100023.59;;;7.19;100.00
41830;BME280;38614;43.472;23.936;2023-04-05T14:19:18;99977.50;;;6.92;100.00
41830;BME280;38614;43.472;23.936;2023-04-05T14:22:06;100030.75;;;6.99;100.00
41830;BME280;38614;43.472;23.936;2023-04-05T14:24:54;99991.91;;;6.68;100.00
41830;BME280;38614;43.472;23.936;2023-04-05T14:27:42;100027.44;;;7.06;100.00
41830;BME280;38614;43.472;23.936;2023-04-05T14:30:30;100033.88;;;7.10;100.00
41830;BME280;38614;43.472;23.936;2023-04-05T14:33:19;100037.06;;;7.12;100.00
41830;BME280;38614;43.472;23.936;2023-04-05T14:36:07;99998.81;;;6.74;100.00
41830;BME280;38614;43.472;23.936;2023-04-05T14:38:55;100036.44;;;6.94;100.00
41830;BME280;38614;43.472;23.936;2023-04-05T14:41:43;100025.53;;;6.85;100.00
41830;BME280;38614;43.472;23.936;2023-04-05T14:44:36;100026.97;;;6.71;100.00
41830;BME280;38614;43.472;23.936;2023-04-05T14:47:24;100033.31;;;6.83;100.00
41830;BME280;38614;43.472;23.936;2023-04-05T14:50:12;100026.16;;;6.70;100.00
41830;BME280;38614;43.472;23.936;2023-04-05T14:53:00;100040.69;;;6.71;100.00
41830;BME280;38614;43.472;23.936;2023-04-05T14:55:48;100047.56;;;6.56;100.00
41830;BME280;38614;43.472;23.936;2023-04-05T14:58:36;100055.28;;;6.63;100.00
41830;BME280;38614;43.472;23.936;2023-04-05T15:01:24;100056.09;;;6.63;100.00
41830;BME280;38614;43.472;23.936;2023-04-05T15:04:12;100051.94;;;6.57;100.00
41830;BME280;38614;43.472;23.936;2023-04-05T15:07:00;100057.00;;;6.46;100.00